createdAt,value
2023-04-27T00:01:39.451Z,2.85
2023-04-27T00:04:07.457Z,2.28
2023-04-27T00:06:34.593Z,2.65
2023-04-27T00:09:02.366Z,2.95
2023-04-27T00:11:29.108Z,3.30
2023-04-27T00:13:56.492Z,3.15
2023-04-27T00:16:23.412Z,2.95
2023-04-27T00:18:50.324Z,3.25
2023-04-27T00:21:17.180Z,3.25
2023-04-27T00:23:44.343Z,3.00
2023-04-27T00:26:11.148Z,3.28
2023-04-27T00:28:37.894Z,2.83
2023-04-27T00:31:04.858Z,3.00
2023-04-27T00:33:32.091Z,3.22
2023-04-27T00:36:02.589Z,3.50
2023-04-27T00:38:30.763Z,3.45
2023-04-27T00:41:04.482Z,3.90
2023-04-27T00:43:32.450Z,4.40
2023-04-27T00:46:00.247Z,4.05
2023-04-27T00:48:27.315Z,3.63
2023-04-27T00:50:54.633Z,3.35
2023-04-27T00:53:21.578Z,3.90
2023-04-27T00:55:48.428Z,3.35
2023-04-27T00:58:15.628Z,3.30
2023-04-27T01:00:42.714Z,3.17
2023-04-27T01:03:10.114Z,3.22
2023-04-27T01:05:37.626Z,3.40
2023-04-27T01:08:05.218Z,3.40
2023-04-27T01:10:32.062Z,3.53
2023-04-27T01:12:59.307Z,2.90
2023-04-27T01:15:26.256Z,3.20
2023-04-27T01:18:02.904Z,3.20
2023-04-27T01:20:30.316Z,3.20
2023-04-27T01:22:58.431Z,3.17
2023-04-27T01:25:25.859Z,3.22
2023-04-27T01:27:53.656Z,3.08
2023-04-27T01:30:22.352Z,2.65
2023-04-27T01:32:50.097Z,3.33
2023-04-27T01:35:17.345Z,3.13
2023-04-27T01:37:44.170Z,2.83
2023-04-27T01:40:11.897Z,3.25
2023-04-27T01:42:38.884Z,3.80
2023-04-27T01:45:06.573Z,2.90
2023-04-27T01:47:33.455Z,3.30
2023-04-27T01:50:00.361Z,3.35
2023-04-27T01:52:27.309Z,3.08
2023-04-27T01:54:54.065Z,2.90
2023-04-27T01:59:53.831Z,2.70
2023-04-27T02:02:20.726Z,3.13
2023-04-27T02:04:47.702Z,2.90
2023-04-27T02:07:14.644Z,3.20
2023-04-27T02:09:41.775Z,2.97
2023-04-27T02:12:08.626Z,3.35
2023-04-27T02:14:35.494Z,3.30
2023-04-27T02:17:02.392Z,3.08
2023-04-27T02:19:29.241Z,2.60
2023-04-27T02:21:56.134Z,2.90
2023-04-27T02:24:22.949Z,3.40
2023-04-27T02:26:49.807Z,2.80
2023-04-27T02:29:16.973Z,3.35
2023-04-27T02:31:44.416Z,3.35
2023-04-27T02:34:11.193Z,3.15
2023-04-27T02:36:37.972Z,3.40
2023-04-27T02:39:05.612Z,3.47
2023-04-27T02:41:32.893Z,3.50
2023-04-27T02:43:59.793Z,2.85
2023-04-27T02:46:27.427Z,3.60
2023-04-27T02:48:55.523Z,3.00
2023-04-27T02:51:22.469Z,3.55
2023-04-27T02:53:49.313Z,3.55
2023-04-27T02:56:16.509Z,3.30
2023-04-27T02:58:44.728Z,3.40
2023-04-27T03:01:11.910Z,2.90
2023-04-27T03:03:39.382Z,2.75
2023-04-27T03:06:07.077Z,3.03
2023-04-27T03:08:33.869Z,3.13
2023-04-27T03:11:00.682Z,3.45
2023-04-27T03:13:28.202Z,3.05
2023-04-27T03:15:55.024Z,3.47
2023-04-27T03:18:21.860Z,3.88
2023-04-27T03:20:48.745Z,4.20
2023-04-27T03:23:15.692Z,4.07
2023-04-27T03:25:42.535Z,4.10
2023-04-27T03:28:09.346Z,3.67
2023-04-27T03:30:36.269Z,3.97
2023-04-27T03:33:03.618Z,4.00
2023-04-27T03:35:30.657Z,3.50
2023-04-27T03:37:57.458Z,3.70
2023-04-27T03:40:24.363Z,2.90
2023-04-27T03:42:51.191Z,3.95
2023-04-27T03:45:19.201Z,3.85
2023-04-27T03:47:46.060Z,3.85
2023-04-27T03:50:13.240Z,3.22
2023-04-27T03:52:40.085Z,3.28
2023-04-27T03:55:07.621Z,3.55
2023-04-27T03:57:34.450Z,3.85
2023-04-27T04:00:01.247Z,3.22
2023-04-27T04:02:28.214Z,3.78
2023-04-27T04:04:55.212Z,3.65
2023-04-27T04:07:22.096Z,3.90
2023-04-27T04:09:48.892Z,3.50
2023-04-27T04:12:15.648Z,3.65
2023-04-27T04:14:42.903Z,3.38
2023-04-27T04:17:13.292Z,3.30
2023-04-27T04:19:40.232Z,3.65
2023-04-27T04:22:07.038Z,4.10
2023-04-27T04:24:33.810Z,4.03
2023-04-27T04:27:00.618Z,3.95
2023-04-27T04:29:27.695Z,3.97
2023-04-27T04:31:56.103Z,4.18
2023-04-27T04:34:23.264Z,4.28
2023-04-27T04:36:53.255Z,4.03
2023-04-27T04:39:23.149Z,4.47
2023-04-27T04:41:50.380Z,3.97
2023-04-27T04:44:17.202Z,4.55
2023-04-27T04:46:44.062Z,3.45
2023-04-27T04:49:10.915Z,3.60
2023-04-27T04:51:43.633Z,3.92
2023-04-27T04:54:11.514Z,3.22
2023-04-27T04:56:38.390Z,3.97
2023-04-27T04:59:05.181Z,4.28
2023-04-27T05:01:32.435Z,4.03
2023-04-27T05:03:59.963Z,3.25
2023-04-27T05:06:26.801Z,4.00
2023-04-27T05:08:53.642Z,3.72
2023-04-27T05:11:20.394Z,3.58
2023-04-27T05:13:47.881Z,3.38
2023-04-27T05:16:14.761Z,3.85
2023-04-27T05:18:42.060Z,4.07
2023-04-27T05:21:16.570Z,3.90
2023-04-27T05:23:43.448Z,3.90
2023-04-27T05:26:18.433Z,4.70
2023-04-27T05:28:46.935Z,4.47
2023-04-27T05:31:13.731Z,4.45
2023-04-27T05:33:40.625Z,5.13
2023-04-27T05:36:07.877Z,4.32
2023-04-27T05:38:36.091Z,4.30
2023-04-27T05:41:02.903Z,4.97
2023-04-27T05:43:29.683Z,4.15
2023-04-27T05:45:56.697Z,5.82
2023-04-27T05:48:23.571Z,5.22
2023-04-27T05:50:50.385Z,5.28
2023-04-27T05:53:17.307Z,6.00
2023-04-27T05:55:44.122Z,5.78
2023-04-27T05:58:13.891Z,5.60
2023-04-27T06:00:40.678Z,5.38
2023-04-27T06:03:07.563Z,4.82
2023-04-27T06:05:34.510Z,5.47
2023-04-27T06:08:01.451Z,6.05
2023-04-27T06:10:28.616Z,5.40
2023-04-27T06:12:55.740Z,5.32
2023-04-27T06:15:22.609Z,5.28
2023-04-27T06:17:49.433Z,5.50
2023-04-27T06:20:16.243Z,4.78
2023-04-27T06:22:43.690Z,5.70
2023-04-27T06:25:10.589Z,5.70
2023-04-27T06:27:37.349Z,5.18
2023-04-27T06:30:04.979Z,5.30
2023-04-27T06:32:32.032Z,4.95
2023-04-27T06:34:58.851Z,5.53
2023-04-27T06:37:26.151Z,6.55
2023-04-27T06:39:52.981Z,6.30
2023-04-27T06:42:19.725Z,6.00
2023-04-27T06:44:46.551Z,5.25
2023-04-27T06:47:13.678Z,5.55
2023-04-27T06:49:40.629Z,5.40
2023-04-27T06:52:07.410Z,5.38
2023-04-27T06:54:34.250Z,5.45
2023-04-27T06:57:01.745Z,5.90
2023-04-27T06:59:28.657Z,5.88
2023-04-27T07:01:55.502Z,5.10
2023-04-27T07:04:22.451Z,5.90
2023-04-27T07:06:49.393Z,5.45
2023-04-27T07:09:27.139Z,5.35
2023-04-27T07:11:55.699Z,5.90
2023-04-27T07:14:22.776Z,5.38
2023-04-27T07:16:49.540Z,5.22
2023-04-27T07:19:16.754Z,5.00
2023-04-27T07:21:43.721Z,5.82
2023-04-27T07:24:10.578Z,5.60
2023-04-27T07:26:37.531Z,5.28
2023-04-27T07:29:11.198Z,5.43
2023-04-27T07:31:46.385Z,4.70
2023-04-27T07:34:13.482Z,5.65
2023-04-27T07:36:40.309Z,5.22
2023-04-27T07:39:08.044Z,4.85
2023-04-27T07:41:35.462Z,4.88
2023-04-27T07:44:02.515Z,5.18
2023-04-27T07:46:31.620Z,4.97
2023-04-27T07:48:59.906Z,4.80
2023-04-27T07:51:28.739Z,5.10
2023-04-27T07:53:56.317Z,5.03
2023-04-27T07:56:23.214Z,4.70
2023-04-27T07:58:50.807Z,4.68
2023-04-27T08:01:19.534Z,4.80
2023-04-27T08:03:47.821Z,4.63
2023-04-27T08:06:15.050Z,4.07
2023-04-27T08:08:42.294Z,4.70
2023-04-27T08:11:12.674Z,3.97
2023-04-27T08:13:39.524Z,5.18
2023-04-27T08:16:06.907Z,3.90
2023-04-27T08:18:34.425Z,3.83
2023-04-27T08:21:01.642Z,4.60
2023-04-27T08:23:29.545Z,4.68
2023-04-27T08:25:56.470Z,4.05
2023-04-27T08:28:23.445Z,4.40
2023-04-27T08:30:51.718Z,4.53
2023-04-27T08:33:18.539Z,4.53
2023-04-27T08:35:45.505Z,4.45
2023-04-27T08:38:12.411Z,4.28
2023-04-27T08:40:43.974Z,4.03
2023-04-27T08:43:11.340Z,3.70
2023-04-27T08:45:39.149Z,3.70
2023-04-27T08:48:06.564Z,4.22
2023-04-27T08:50:33.478Z,3.85
2023-04-27T08:53:00.637Z,4.03
2023-04-27T08:55:28.407Z,3.67
2023-04-27T08:57:58.880Z,5.05
2023-04-27T09:00:27.201Z,4.65
2023-04-27T09:02:54.187Z,3.72
2023-04-27T09:05:23.840Z,6.43
2023-04-27T09:08:08.032Z,4.13
2023-04-27T09:10:54.842Z,3.38
2023-04-27T09:13:21.651Z,3.60
2023-04-27T09:15:51.726Z,3.60
2023-04-27T09:18:23.185Z,3.33
2023-04-27T09:20:52.868Z,3.60
2023-04-27T09:23:31.595Z,3.15
2023-04-27T09:26:01.111Z,3.40
2023-04-27T09:28:30.899Z,3.35
2023-04-27T09:31:04.241Z,3.35
2023-04-27T09:33:36.115Z,3.40
2023-04-27T09:36:05.780Z,3.40
2023-04-27T09:38:33.387Z,3.38
2023-04-27T09:41:01.143Z,3.22
2023-04-27T09:43:29.842Z,3.03
2023-04-27T09:45:57.816Z,2.92
2023-04-27T09:48:26.141Z,2.83
2023-04-27T09:50:53.688Z,3.15
2023-04-27T09:53:38.799Z,3.50
2023-04-27T09:56:42.480Z,3.28
2023-04-27T09:59:47.401Z,3.10
2023-04-27T10:05:18.541Z,2.92
2023-04-27T10:07:46.207Z,3.25
2023-04-27T10:10:20.514Z,3.97
2023-04-27T10:13:02.887Z,2.78
2023-04-27T10:15:30.283Z,3.35
2023-04-27T10:18:05.496Z,3.40
2023-04-27T10:20:37.476Z,3.10
2023-04-27T10:23:04.887Z,3.17
2023-04-27T10:25:40.387Z,3.53
2023-04-27T10:28:10.435Z,2.88
2023-04-27T10:30:39.486Z,2.88
2023-04-27T10:33:09.809Z,3.60
2023-04-27T10:35:41.934Z,3.70
2023-04-27T10:38:22.765Z,3.65
2023-04-27T10:40:58.301Z,2.72
2023-04-27T10:43:27.947Z,3.03
2023-04-27T10:45:55.837Z,3.10
2023-04-27T10:48:22.817Z,4.75
2023-04-27T10:50:51.794Z,3.50
2023-04-27T10:53:18.760Z,2.92
2023-04-27T10:55:45.618Z,3.38
2023-04-27T10:58:12.440Z,3.53
2023-04-27T11:00:49.171Z,3.50
2023-04-27T11:03:19.378Z,3.28
2023-04-27T11:05:49.035Z,3.28
2023-04-27T11:08:18.182Z,3.25
2023-04-27T11:10:51.544Z,3.00
2023-04-27T11:13:21.418Z,3.10
2023-04-27T11:15:54.814Z,2.90
2023-04-27T11:18:25.966Z,3.55
2023-04-27T11:21:06.862Z,3.42
2023-04-27T11:23:37.910Z,3.20
2023-04-27T11:26:14.717Z,3.60
2023-04-27T11:29:00.923Z,2.67
2023-04-27T11:31:43.258Z,2.50
2023-04-27T11:34:17.173Z,3.00
2023-04-27T11:36:44.344Z,3.10
2023-04-27T11:39:19.598Z,2.88
2023-04-27T11:41:46.587Z,3.22
2023-04-27T11:44:13.374Z,2.63
2023-04-27T11:46:44.406Z,2.85
2023-04-27T11:49:12.559Z,3.20
2023-04-27T11:51:40.515Z,3.30
2023-04-27T11:54:08.022Z,2.80
2023-04-27T11:56:40.862Z,3.03
2023-04-27T11:59:22.851Z,2.50
2023-04-27T12:01:51.485Z,2.40
2023-04-27T12:04:18.822Z,2.60
2023-04-27T12:06:46.194Z,2.80
2023-04-27T12:09:13.044Z,2.72
2023-04-27T12:11:39.818Z,2.72
2023-04-27T12:14:07.167Z,2.65
2023-04-27T12:16:34.111Z,3.08
2023-04-27T12:19:01.581Z,2.85
2023-04-27T12:21:28.424Z,2.92
2023-04-27T12:23:55.195Z,3.05
2023-04-27T12:26:21.981Z,4.50
2023-04-27T12:28:48.838Z,3.00
2023-04-27T12:31:16.977Z,2.75
2023-04-27T12:33:43.830Z,3.33
2023-04-27T12:36:10.569Z,3.10
2023-04-27T12:38:37.564Z,2.85
2023-04-27T12:41:04.840Z,2.55
2023-04-27T12:43:31.620Z,2.80
2023-04-27T12:45:58.493Z,2.90
2023-04-27T12:48:26.343Z,3.00
2023-04-27T12:50:53.185Z,3.05
2023-04-27T12:53:21.697Z,3.25
2023-04-27T12:55:48.964Z,3.20
2023-04-27T12:58:15.789Z,3.08
2023-04-27T13:00:42.811Z,2.92
2023-04-27T13:03:09.755Z,3.08
2023-04-27T13:05:36.783Z,2.83
2023-04-27T13:08:04.600Z,2.60
2023-04-27T13:10:31.559Z,2.78
2023-04-27T13:12:59.677Z,3.17
2023-04-27T13:15:26.513Z,3.10
2023-04-27T13:17:54.339Z,3.10
2023-04-27T13:20:21.308Z,3.58
2023-04-27T13:22:48.328Z,3.38
2023-04-27T13:25:16.764Z,3.10
2023-04-27T13:27:43.682Z,3.85
2023-04-27T13:30:10.777Z,3.90
2023-04-27T13:32:37.803Z,2.85
2023-04-27T13:35:05.402Z,2.60
2023-04-27T13:37:32.397Z,3.05
2023-04-27T13:39:59.160Z,2.90
2023-04-27T13:42:29.345Z,2.85
2023-04-27T13:44:57.033Z,2.90
2023-04-27T13:47:23.929Z,2.97
2023-04-27T13:49:50.837Z,2.83
2023-04-27T13:52:17.657Z,3.30
2023-04-27T13:54:44.403Z,2.80
2023-04-27T13:57:11.328Z,3.05
2023-04-27T13:59:38.082Z,2.85
2023-04-27T14:02:04.847Z,2.90
2023-04-27T14:04:31.875Z,3.15
2023-04-27T14:06:58.801Z,2.55
2023-04-27T14:09:26.998Z,3.00
2023-04-27T14:11:56.845Z,3.03
2023-04-27T14:14:24.185Z,2.92
2023-04-27T14:16:51.414Z,3.00
2023-04-27T14:19:20.538Z,2.75
2023-04-27T14:21:49.302Z,2.80
2023-04-27T14:24:16.102Z,3.78
2023-04-27T14:26:44.093Z,3.15
2023-04-27T14:29:11.679Z,7.75
2023-04-27T14:31:40.298Z,3.30
2023-04-27T14:34:08.498Z,4.38
2023-04-27T14:36:35.843Z,4.38
2023-04-27T14:39:04.566Z,6.38
2023-04-27T14:41:31.497Z,5.60
2023-04-27T14:43:58.473Z,5.70
2023-04-27T14:46:25.438Z,3.00
2023-04-27T14:48:52.282Z,4.10
2023-04-27T14:51:19.108Z,4.55
2023-04-27T14:53:45.985Z,4.78
2023-04-27T14:56:12.816Z,4.82
2023-04-27T14:58:39.669Z,5.55
2023-04-27T15:01:07.853Z,4.57
2023-04-27T15:03:34.942Z,4.35
2023-04-27T15:06:03.010Z,3.80
2023-04-27T15:08:32.715Z,2.83
2023-04-27T15:11:01.097Z,3.60
2023-04-27T15:13:28.458Z,4.90
2023-04-27T15:15:56.567Z,3.00
2023-04-27T15:18:24.460Z,3.20
2023-04-27T15:20:55.849Z,2.83
2023-04-27T15:23:23.575Z,2.70
2023-04-27T15:25:53.777Z,2.80
2023-04-27T15:28:20.711Z,2.90
2023-04-27T15:30:47.789Z,3.00
2023-04-27T15:33:15.687Z,3.42
2023-04-27T15:35:42.702Z,2.95
2023-04-27T15:38:13.199Z,2.90
2023-04-27T15:40:40.178Z,3.80
2023-04-27T15:43:06.977Z,2.95
2023-04-27T15:45:34.114Z,2.88
2023-04-27T15:48:00.919Z,2.70
2023-04-27T15:50:27.902Z,2.65
2023-04-27T15:52:54.807Z,2.92
2023-04-27T15:55:22.237Z,3.05
2023-04-27T15:57:50.113Z,3.17
2023-04-27T16:00:18.830Z,2.80
2023-04-27T16:02:46.970Z,3.05
2023-04-27T16:05:14.675Z,2.90
2023-04-27T16:07:43.744Z,2.80
2023-04-27T16:10:11.548Z,3.08
2023-04-27T16:12:38.825Z,2.90
2023-04-27T16:15:08.537Z,3.00
2023-04-27T16:17:37.119Z,2.90
2023-04-27T16:20:08.277Z,2.45
2023-04-27T16:22:36.584Z,3.00
2023-04-27T16:25:06.485Z,2.90
2023-04-27T16:27:33.607Z,2.65
2023-04-27T16:30:00.444Z,3.08
2023-04-27T16:32:27.512Z,2.60
2023-04-27T16:34:54.343Z,5.20
2023-04-27T16:37:21.180Z,4.38
2023-04-27T16:39:47.980Z,3.10
2023-04-27T16:42:19.848Z,2.88
2023-04-27T16:44:47.093Z,3.13
2023-04-27T16:47:14.052Z,2.83
2023-04-27T16:49:43.721Z,2.95
2023-04-27T16:52:11.223Z,2.80
2023-04-27T16:54:38.031Z,3.22
2023-04-27T16:57:04.810Z,3.05
2023-04-27T16:59:32.391Z,5.03
2023-04-27T17:02:06.294Z,4.57
2023-04-27T17:04:40.733Z,3.08
2023-04-27T17:07:09.070Z,3.05
2023-04-27T17:09:38.773Z,3.35
2023-04-27T17:12:10.953Z,3.60
2023-04-27T17:14:38.897Z,4.18
2023-04-27T17:17:06.565Z,2.90
2023-04-27T17:19:33.449Z,3.00
2023-04-27T17:22:00.312Z,3.05
2023-04-27T17:24:27.235Z,2.40
2023-04-27T17:26:54.019Z,2.53
2023-04-27T17:29:21.622Z,3.58
2023-04-27T17:31:50.088Z,3.80
2023-04-27T17:34:17.261Z,3.35
2023-04-27T17:36:44.282Z,2.92
2023-04-27T17:39:12.930Z,2.88
2023-04-27T17:41:40.388Z,3.00
2023-04-27T17:44:07.244Z,2.90
2023-04-27T17:46:34.175Z,2.80
2023-04-27T17:49:01.278Z,3.20
2023-04-27T17:51:28.066Z,2.83
2023-04-27T17:53:54.848Z,2.70
2023-04-27T17:56:21.803Z,3.10
2023-04-27T17:58:48.560Z,3.35
2023-04-27T18:01:15.470Z,4.60
2023-04-27T18:03:42.594Z,3.92
2023-04-27T18:06:12.154Z,3.35
2023-04-27T18:08:38.968Z,3.40
2023-04-27T18:11:06.724Z,4.18
2023-04-27T18:13:33.647Z,4.07
2023-04-27T18:16:00.507Z,3.88
2023-04-27T18:18:28.061Z,3.72
2023-04-27T18:20:54.890Z,5.30
2023-04-27T18:23:21.852Z,4.20
2023-04-27T18:25:48.861Z,5.88
2023-04-27T18:28:16.195Z,4.32
2023-04-27T18:30:43.054Z,7.72
2023-04-27T18:33:10.000Z,13.57
2023-04-27T18:35:36.957Z,11.63
2023-04-27T18:38:03.734Z,10.88
2023-04-27T18:40:31.567Z,10.73
2023-04-27T18:42:58.506Z,9.48
2023-04-27T18:45:25.303Z,7.93
2023-04-27T18:47:52.101Z,6.10
2023-04-27T18:50:19.206Z,4.72
2023-04-27T18:52:46.710Z,4.55
2023-04-27T18:55:16.916Z,3.58
2023-04-27T18:57:44.712Z,3.88
2023-04-27T19:00:12.917Z,3.90
2023-04-27T19:02:40.324Z,3.38
2023-04-27T19:05:12.932Z,2.95
2023-04-27T19:07:42.216Z,3.75
2023-04-27T19:10:09.779Z,3.80
2023-04-27T19:12:36.535Z,3.90
2023-04-27T19:15:04.183Z,4.35
2023-04-27T19:17:31.309Z,4.18
2023-04-27T19:19:58.452Z,4.40
2023-04-27T19:22:26.929Z,4.10
2023-04-27T19:24:53.763Z,5.47
2023-04-27T19:27:20.516Z,4.57
2023-04-27T19:29:53.859Z,3.90
2023-04-27T19:34:48.932Z,3.70
2023-04-27T19:37:16.003Z,3.50
2023-04-27T19:39:42.824Z,3.65
2023-04-27T19:42:09.609Z,4.55
2023-04-27T19:44:36.493Z,4.70
2023-04-27T19:47:03.301Z,4.03
2023-04-27T19:49:33.772Z,5.70
2023-04-27T19:52:00.692Z,4.43
2023-04-27T19:54:27.781Z,4.68
2023-04-27T19:56:55.603Z,4.28
2023-04-27T19:59:22.645Z,4.43
2023-04-27T20:01:49.769Z,4.38
2023-04-27T20:04:18.190Z,3.75
2023-04-27T20:06:46.386Z,3.88
2023-04-27T20:09:13.310Z,4.22
2023-04-27T20:11:40.260Z,4.00
2023-04-27T20:14:07.125Z,4.10
2023-04-27T20:16:34.001Z,4.20
2023-04-27T20:19:00.780Z,4.13
2023-04-27T20:21:28.014Z,3.97
2023-04-27T20:23:54.987Z,4.03
2023-04-27T20:26:22.427Z,3.60
2023-04-27T20:28:49.507Z,4.53
2023-04-27T20:31:16.483Z,4.70
2023-04-27T20:33:43.331Z,4.70
2023-04-27T20:36:17.161Z,5.50
2023-04-27T20:38:45.415Z,4.65
2023-04-27T20:41:12.373Z,5.57
2023-04-27T20:43:39.947Z,4.85
2023-04-27T20:46:13.419Z,4.30
2023-04-27T20:48:40.481Z,4.57
2023-04-27T20:51:07.282Z,4.20
2023-04-27T20:53:34.087Z,4.88
2023-04-27T20:56:01.122Z,4.65
2023-04-27T20:58:28.144Z,4.05
2023-04-27T21:00:54.989Z,4.07
2023-04-27T21:03:22.313Z,4.10
2023-04-27T21:05:49.341Z,3.92
2023-04-27T21:08:19.406Z,3.92
2023-04-27T21:10:46.486Z,3.55
2023-04-27T21:13:13.290Z,4.32
2023-04-27T21:15:42.148Z,4.00
2023-04-27T21:18:16.040Z,4.13
2023-04-27T21:20:46.046Z,4.07
2023-04-27T21:23:14.666Z,4.28
2023-04-27T21:25:46.045Z,3.78
2023-04-27T21:28:13.654Z,3.90
2023-04-27T21:30:40.934Z,4.25
2023-04-27T21:33:07.741Z,3.90
2023-04-27T21:35:34.837Z,3.40
2023-04-27T21:38:01.786Z,3.50
2023-04-27T21:40:28.627Z,3.72
2023-04-27T21:42:55.531Z,4.03
2023-04-27T21:45:22.306Z,4.25
2023-04-27T21:47:49.171Z,4.10
2023-04-27T21:50:16.693Z,3.72
2023-04-27T21:52:43.559Z,3.80
2023-04-27T21:55:10.958Z,3.88
2023-04-27T21:57:37.792Z,4.47
2023-04-27T22:00:13.251Z,4.00
2023-04-27T22:02:42.425Z,3.92
2023-04-27T22:05:10.684Z,3.90
2023-04-27T22:07:38.095Z,3.80
2023-04-27T22:10:06.168Z,3.92
2023-04-27T22:12:33.514Z,3.80
2023-04-27T22:15:00.910Z,3.92
2023-04-27T22:17:27.905Z,4.40
2023-04-27T22:19:54.898Z,3.90
2023-04-27T22:22:21.716Z,3.85
2023-04-27T22:24:48.618Z,4.18
2023-04-27T22:27:15.623Z,3.90
2023-04-27T22:29:42.456Z,3.90
2023-04-27T22:32:09.994Z,4.35
2023-04-27T22:34:37.300Z,4.20
2023-04-27T22:37:04.299Z,3.70
2023-04-27T22:39:32.095Z,4.00
2023-04-27T22:41:58.829Z,3.60
2023-04-27T22:44:26.027Z,3.80
2023-04-27T22:46:52.921Z,3.25
2023-04-27T22:49:19.791Z,3.97
2023-04-27T22:51:47.046Z,3.55
2023-04-27T22:54:14.671Z,4.03
2023-04-27T22:56:41.760Z,3.83
2023-04-27T22:59:08.560Z,3.58
2023-04-27T23:01:35.561Z,4.25
2023-04-27T23:04:02.810Z,3.50
2023-04-27T23:06:30.284Z,3.90
2023-04-27T23:08:57.180Z,3.80
2023-04-27T23:11:24.011Z,3.90
2023-04-27T23:13:50.862Z,4.25
2023-04-27T23:16:17.933Z,3.47
2023-04-27T23:18:44.759Z,3.67
2023-04-27T23:21:11.754Z,3.55
2023-04-27T23:23:38.613Z,3.97
2023-04-27T23:26:13.924Z,3.75
2023-04-27T23:28:41.248Z,3.72
2023-04-27T23:31:08.304Z,3.55
2023-04-27T23:33:35.346Z,3.97
2023-04-27T23:36:02.996Z,3.63
2023-04-27T23:38:29.817Z,3.75
2023-04-27T23:40:56.625Z,3.17
2023-04-27T23:43:23.489Z,3.67
2023-04-27T23:45:52.884Z,3.92
2023-04-27T23:48:20.060Z,3.40
2023-04-27T23:50:46.885Z,4.05
2023-04-27T23:53:13.638Z,3.67
2023-04-27T23:55:40.669Z,4.03
2023-04-27T23:58:07.420Z,3.55
